sensor_id;sensor_type;location;lat;lon;timestamp;temperature;humidity
73322;DHT22;61549;37.044;22.128;2023-04-03T00:01:44;17.00;63.00
73322;DHT22;61549;37.044;22.128;2023-04-03T00:04:11;17.00;63.20
73322;DHT22;61549;37.044;22.128;2023-04-03T00:06:37;16.90;62.20
73322;DHT22;61549;37.044;22.128;2023-04-03T00:09:03;16.90;62.20
73322;DHT22;61549;37.044;22.128;2023-04-03T00:11:28;16.90;62.20
73322;DHT22;61549;37.044;22.128;2023-04-03T00:13:54;17.00;62.70
73322;DHT22;61549;37.044;22.128;2023-04-03T00:16:20;17.00;62.70
73322;DHT22;61549;37.044;22.128;2023-04-03T00:18:46;17.10;63.10
73322;DHT22;61549;37.044;22.128;2023-04-03T00:21:13;17.10;63.30
73322;DHT22;61549;37.044;22.128;2023-04-03T00:23:39;17.10;63.90
73322;DHT22;61549;37.044;22.128;2023-04-03T00:26:05;17.10;64.10
73322;DHT22;61549;37.044;22.128;2023-04-03T00:28:30;17.10;63.90
73322;DHT22;61549;37.044;22.128;2023-04-03T00:30:56;17.00;62.50
73322;DHT22;61549;37.044;22.128;2023-04-03T00:33:22;16.90;63.00
73322;DHT22;61549;37.044;22.128;2023-04-03T00:35:50;17.00;63.80
73322;DHT22;61549;37.044;22.128;2023-04-03T00:38:16;17.10;64.10
73322;DHT22;61549;37.044;22.128;2023-04-03T00:40:44;17.10;62.70
73322;DHT22;61549;37.044;22.128;2023-04-03T00:43:22;17.10;61.80
73322;DHT22;61549;37.044;22.128;2023-04-03T00:45:51;17.10;61.50
73322;DHT22;61549;37.044;22.128;2023-04-03T00:48:26;17.00;61.40
73322;DHT22;61549;37.044;22.128;2023-04-03T00:50:54;17.20;61.50
73322;DHT22;61549;37.044;22.128;2023-04-03T00:53:27;17.20;61.80
73322;DHT22;61549;37.044;22.128;2023-04-03T00:55:56;17.20;61.80
73322;DHT22;61549;37.044;22.128;2023-04-03T00:59:27;17.40;62.20
73322;DHT22;61549;37.044;22.128;2023-04-03T01:01:24;17.40;61.90
73322;DHT22;61549;37.044;22.128;2023-04-03T01:03:50;17.50;60.70
73322;DHT22;61549;37.044;22.128;2023-04-03T01:06:19;17.40;59.80
73322;DHT22;61549;37.044;22.128;2023-04-03T01:08:49;17.50;59.40
73322;DHT22;61549;37.044;22.128;2023-04-03T01:11:15;17.40;59.40
73322;DHT22;61549;37.044;22.128;2023-04-03T01:13:41;17.40;59.50
73322;DHT22;61549;37.044;22.128;2023-04-03T01:16:09;17.40;58.70
73322;DHT22;61549;37.044;22.128;2023-04-03T01:18:38;17.40;58.00
73322;DHT22;61549;37.044;22.128;2023-04-03T01:24:05;17.40;55.80
73322;DHT22;61549;37.044;22.128;2023-04-03T01:26:40;17.40;54.60
73322;DHT22;61549;37.044;22.128;2023-04-03T01:29:06;17.40;53.70
73322;DHT22;61549;37.044;22.128;2023-04-03T01:31:56;17.50;54.10
73322;DHT22;61549;37.044;22.128;2023-04-03T01:34:22;17.60;53.80
73322;DHT22;61549;37.044;22.128;2023-04-03T01:36:48;17.70;53.00
73322;DHT22;61549;37.044;22.128;2023-04-03T01:39:14;17.80;52.20
73322;DHT22;61549;37.044;22.128;2023-04-03T01:41:40;17.80;50.80
73322;DHT22;61549;37.044;22.128;2023-04-03T01:44:06;17.90;49.80
73322;DHT22;61549;37.044;22.128;2023-04-03T01:46:32;18.00;48.40
73322;DHT22;61549;37.044;22.128;2023-04-03T01:48:58;18.10;47.80
73322;DHT22;61549;37.044;22.128;2023-04-03T01:51:24;18.10;48.10
73322;DHT22;61549;37.044;22.128;2023-04-03T01:53:49;18.20;48.50
73322;DHT22;61549;37.044;22.128;2023-04-03T01:56:17;18.20;47.30
73322;DHT22;61549;37.044;22.128;2023-04-03T01:58:42;18.30;47.70
73322;DHT22;61549;37.044;22.128;2023-04-03T02:01:08;18.40;47.90
73322;DHT22;61549;37.044;22.128;2023-04-03T02:03:36;18.40;48.00
73322;DHT22;61549;37.044;22.128;2023-04-03T02:06:02;18.50;48.00
73322;DHT22;61549;37.044;22.128;2023-04-03T02:08:28;18.50;46.70
73322;DHT22;61549;37.044;22.128;2023-04-03T02:10:54;18.60;47.90
73322;DHT22;61549;37.044;22.128;2023-04-03T02:13:20;18.70;49.40
73322;DHT22;61549;37.044;22.128;2023-04-03T02:15:46;18.70;50.50
73322;DHT22;61549;37.044;22.128;2023-04-03T02:18:13;18.80;51.60
73322;DHT22;61549;37.044;22.128;2023-04-03T02:20:41;18.80;51.90
73322;DHT22;61549;37.044;22.128;2023-04-03T02:23:07;18.70;51.30
73322;DHT22;61549;37.044;22.128;2023-04-03T02:25:37;18.60;51.40
73322;DHT22;61549;37.044;22.128;2023-04-03T02:28:03;18.60;51.70
73322;DHT22;61549;37.044;22.128;2023-04-03T02:30:29;18.70;52.70
73322;DHT22;61549;37.044;22.128;2023-04-03T02:32:55;18.70;52.80
73322;DHT22;61549;37.044;22.128;2023-04-03T02:35:21;18.70;53.10
73322;DHT22;61549;37.044;22.128;2023-04-03T02:37:47;18.60;52.80
73322;DHT22;61549;37.044;22.128;2023-04-03T02:40:13;18.60;53.10
73322;DHT22;61549;37.044;22.128;2023-04-03T02:42:39;18.70;53.40
73322;DHT22;61549;37.044;22.128;2023-04-03T02:45:05;18.70;54.70
73322;DHT22;61549;37.044;22.128;2023-04-03T02:47:31;18.50;52.90
73322;DHT22;61549;37.044;22.128;2023-04-03T02:49:57;18.60;54.60
73322;DHT22;61549;37.044;22.128;2023-04-03T02:52:23;18.50;55.60
73322;DHT22;61549;37.044;22.128;2023-04-03T02:54:48;18.50;56.30
73322;DHT22;61549;37.044;22.128;2023-04-03T02:57:14;18.50;56.00
73322;DHT22;61549;37.044;22.128;2023-04-03T02:59:40;18.50;56.20
73322;DHT22;61549;37.044;22.128;2023-04-03T03:02:09;18.40;56.80
73322;DHT22;61549;37.044;22.128;2023-04-03T03:04:35;18.40;56.90
73322;DHT22;61549;37.044;22.128;2023-04-03T03:07:02;18.40;57.10
73322;DHT22;61549;37.044;22.128;2023-04-03T03:09:28;18.30;57.00
73322;DHT22;61549;37.044;22.128;2023-04-03T03:11:55;18.20;56.70
73322;DHT22;61549;37.044;22.128;2023-04-03T03:14:21;18.20;57.20
73322;DHT22;61549;37.044;22.128;2023-04-03T03:16:49;18.20;57.40
73322;DHT22;61549;37.044;22.128;2023-04-03T03:19:15;18.10;57.50
73322;DHT22;61549;37.044;22.128;2023-04-03T03:21:41;18.00;57.00
73322;DHT22;61549;37.044;22.128;2023-04-03T03:24:07;18.00;57.40
73322;DHT22;61549;37.044;22.128;2023-04-03T03:26:33;18.00;57.90
73322;DHT22;61549;37.044;22.128;2023-04-03T03:28:59;17.90;58.60
73322;DHT22;61549;37.044;22.128;2023-04-03T03:31:27;17.90;58.60
73322;DHT22;61549;37.044;22.128;2023-04-03T03:33:53;17.90;59.30
73322;DHT22;61549;37.044;22.128;2023-04-03T03:36:18;17.90;59.90
73322;DHT22;61549;37.044;22.128;2023-04-03T03:38:45;17.90;60.40
73322;DHT22;61549;37.044;22.128;2023-04-03T03:41:10;17.80;59.50
73322;DHT22;61549;37.044;22.128;2023-04-03T03:43:36;17.80;59.30
73322;DHT22;61549;37.044;22.128;2023-04-03T03:46:02;17.80;59.90
73322;DHT22;61549;37.044;22.128;2023-04-03T03:48:28;17.80;59.30
73322;DHT22;61549;37.044;22.128;2023-04-03T03:50:54;17.80;59.40
73322;DHT22;61549;37.044;22.128;2023-04-03T03:53:19;17.70;59.20
73322;DHT22;61549;37.044;22.128;2023-04-03T03:55:45;17.70;59.50
73322;DHT22;61549;37.044;22.128;2023-04-03T03:58:11;17.60;58.10
73322;DHT22;61549;37.044;22.128;2023-04-03T04:00:37;17.50;58.20
73322;DHT22;61549;37.044;22.128;2023-04-03T04:03:03;17.50;59.30
73322;DHT22;61549;37.044;22.128;2023-04-03T04:05:29;17.50;59.70
73322;DHT22;61549;37.044;22.128;2023-04-03T04:07:54;17.50;58.60
73322;DHT22;61549;37.044;22.128;2023-04-03T04:10:22;17.50;58.80
73322;DHT22;61549;37.044;22.128;2023-04-03T04:12:48;17.40;58.50
73322;DHT22;61549;37.044;22.128;2023-04-03T04:15:16;17.30;57.50
73322;DHT22;61549;37.044;22.128;2023-04-03T04:17:42;17.30;58.20
73322;DHT22;61549;37.044;22.128;2023-04-03T04:20:08;17.40;58.70
73322;DHT22;61549;37.044;22.128;2023-04-03T04:22:34;17.50;58.40
73322;DHT22;61549;37.044;22.128;2023-04-03T04:25:00;17.40;58.70
73322;DHT22;61549;37.044;22.128;2023-04-03T04:27:27;17.60;59.90
73322;DHT22;61549;37.044;22.128;2023-04-03T04:29:52;17.50;59.70
73322;DHT22;61549;37.044;22.128;2023-04-03T04:32:18;17.50;58.90
73322;DHT22;61549;37.044;22.128;2023-04-03T04:34:44;17.50;59.30
73322;DHT22;61549;37.044;22.128;2023-04-03T04:37:10;17.50;60.00
73322;DHT22;61549;37.044;22.128;2023-04-03T04:39:36;17.50;60.40
73322;DHT22;61549;37.044;22.128;2023-04-03T04:42:02;17.50;59.80
73322;DHT22;61549;37.044;22.128;2023-04-03T04:44:28;17.40;59.10
73322;DHT22;61549;37.044;22.128;2023-04-03T04:46:54;16.70;59.40
73322;DHT22;61549;37.044;22.128;2023-04-03T04:49:20;16.80;60.50
73322;DHT22;61549;37.044;22.128;2023-04-03T04:51:45;17.00;60.50
73322;DHT22;61549;37.044;22.128;2023-04-03T04:54:11;17.10;60.50
73322;DHT22;61549;37.044;22.128;2023-04-03T04:56:37;17.20;59.30
73322;DHT22;61549;37.044;22.128;2023-04-03T04:59:03;17.30;58.50
73322;DHT22;61549;37.044;22.128;2023-04-03T05:01:31;17.40;58.50
73322;DHT22;61549;37.044;22.128;2023-04-03T05:03:57;17.50;58.50
73322;DHT22;61549;37.044;22.128;2023-04-03T05:06:22;17.50;58.60
73322;DHT22;61549;37.044;22.128;2023-04-03T05:08:48;17.60;59.60
73322;DHT22;61549;37.044;22.128;2023-04-03T05:11:14;17.60;59.70
73322;DHT22;61549;37.044;22.128;2023-04-03T05:13:40;17.60;59.20
73322;DHT22;61549;37.044;22.128;2023-04-03T05:16:08;17.60;59.30
73322;DHT22;61549;37.044;22.128;2023-04-03T05:18:33;17.70;60.10
73322;DHT22;61549;37.044;22.128;2023-04-03T05:20:59;17.60;59.50
73322;DHT22;61549;37.044;22.128;2023-04-03T05:23:25;17.60;60.50
73322;DHT22;61549;37.044;22.128;2023-04-03T05:25:51;17.60;60.30
73322;DHT22;61549;37.044;22.128;2023-04-03T05:28:18;17.60;60.30
73322;DHT22;61549;37.044;22.128;2023-04-03T05:30:44;17.60;59.80
73322;DHT22;61549;37.044;22.128;2023-04-03T05:33:09;17.60;59.40
73322;DHT22;61549;37.044;22.128;2023-04-03T05:35:37;17.60;59.50
73322;DHT22;61549;37.044;22.128;2023-04-03T05:38:07;17.60;58.70
73322;DHT22;61549;37.044;22.128;2023-04-03T05:40:33;17.60;58.00
73322;DHT22;61549;37.044;22.128;2023-04-03T05:42:59;17.30;57.90
73322;DHT22;61549;37.044;22.128;2023-04-03T05:45:34;17.40;58.10
73322;DHT22;61549;37.044;22.128;2023-04-03T05:48:00;17.50;59.10
73322;DHT22;61549;37.044;22.128;2023-04-03T05:50:27;17.60;61.00
73322;DHT22;61549;37.044;22.128;2023-04-03T05:52:56;17.70;61.00
73322;DHT22;61549;37.044;22.128;2023-04-03T05:55:22;17.70;61.20
73322;DHT22;61549;37.044;22.128;2023-04-03T05:58:00;17.60;60.70
73322;DHT22;61549;37.044;22.128;2023-04-03T06:00:26;17.70;60.40
73322;DHT22;61549;37.044;22.128;2023-04-03T06:02:54;17.70;60.20
73322;DHT22;61549;37.044;22.128;2023-04-03T06:05:20;17.80;59.60
73322;DHT22;61549;37.044;22.128;2023-04-03T06:07:46;17.80;59.50
73322;DHT22;61549;37.044;22.128;2023-04-03T06:10:12;17.70;59.70
73322;DHT22;61549;37.044;22.128;2023-04-03T06:12:38;17.70;60.40
73322;DHT22;61549;37.044;22.128;2023-04-03T06:15:05;17.70;61.20
73322;DHT22;61549;37.044;22.128;2023-04-03T06:17:31;17.70;61.40
73322;DHT22;61549;37.044;22.128;2023-04-03T06:19:57;17.80;61.10
73322;DHT22;61549;37.044;22.128;2023-04-03T06:22:23;17.90;60.60
73322;DHT22;61549;37.044;22.128;2023-04-03T06:24:51;17.90;60.40
73322;DHT22;61549;37.044;22.128;2023-04-03T06:27:18;18.00;60.20
73322;DHT22;61549;37.044;22.128;2023-04-03T06:29:43;18.00;59.90
73322;DHT22;61549;37.044;22.128;2023-04-03T06:32:10;18.10;60.40
73322;DHT22;61549;37.044;22.128;2023-04-03T06:34:36;18.00;60.00
73322;DHT22;61549;37.044;22.128;2023-04-03T06:37:02;18.10;58.70
73322;DHT22;61549;37.044;22.128;2023-04-03T06:39:28;18.10;59.10
73322;DHT22;61549;37.044;22.128;2023-04-03T06:41:55;18.20;60.20
73322;DHT22;61549;37.044;22.128;2023-04-03T06:44:21;18.20;60.30
73322;DHT22;61549;37.044;22.128;2023-04-03T06:46:47;18.20;60.70
73322;DHT22;61549;37.044;22.128;2023-04-03T06:49:15;18.20;60.90
73322;DHT22;61549;37.044;22.128;2023-04-03T06:51:40;18.30;60.70
73322;DHT22;61549;37.044;22.128;2023-04-03T06:54:06;18.30;61.80
73322;DHT22;61549;37.044;22.128;2023-04-03T06:56:33;18.30;62.10
73322;DHT22;61549;37.044;22.128;2023-04-03T06:59:00;18.20;62.60
73322;DHT22;61549;37.044;22.128;2023-04-03T07:01:32;18.00;61.90
73322;DHT22;61549;37.044;22.128;2023-04-03T07:03:58;18.10;62.30
73322;DHT22;61549;37.044;22.128;2023-04-03T07:06:24;18.20;62.40
73322;DHT22;61549;37.044;22.128;2023-04-03T07:08:52;18.30;62.70
73322;DHT22;61549;37.044;22.128;2023-04-03T07:11:18;18.30;62.40
73322;DHT22;61549;37.044;22.128;2023-04-03T07:13:44;18.30;62.80
73322;DHT22;61549;37.044;22.128;2023-04-03T07:16:10;18.30;63.30
73322;DHT22;61549;37.044;22.128;2023-04-03T07:18:36;18.40;63.60
73322;DHT22;61549;37.044;22.128;2023-04-03T07:21:03;18.40;63.70
73322;DHT22;61549;37.044;22.128;2023-04-03T07:23:29;18.40;62.70
73322;DHT22;61549;37.044;22.128;2023-04-03T07:25:55;18.40;61.80
73322;DHT22;61549;37.044;22.128;2023-04-03T07:28:22;18.30;61.20
73322;DHT22;61549;37.044;22.128;2023-04-03T07:31:05;18.30;60.50
73322;DHT22;61549;37.044;22.128;2023-04-03T07:33:34;18.40;60.10
73322;DHT22;61549;37.044;22.128;2023-04-03T07:36:01;18.40;60.30
73322;DHT22;61549;37.044;22.128;2023-04-03T07:38:27;18.30;60.00
73322;DHT22;61549;37.044;22.128;2023-04-03T07:40:53;18.20;59.10
73322;DHT22;61549;37.044;22.128;2023-04-03T07:43:20;18.20;59.20
73322;DHT22;61549;37.044;22.128;2023-04-03T07:45:49;18.20;59.00
73322;DHT22;61549;37.044;22.128;2023-04-03T07:48:17;18.20;59.00
73322;DHT22;61549;37.044;22.128;2023-04-03T07:50:44;18.20;59.40
73322;DHT22;61549;37.044;22.128;2023-04-03T07:53:10;18.20;59.50
73322;DHT22;61549;37.044;22.128;2023-04-03T07:55:36;18.30;59.10
73322;DHT22;61549;37.044;22.128;2023-04-03T07:58:09;18.30;58.70
73322;DHT22;61549;37.044;22.128;2023-04-03T08:00:36;18.30;59.00
73322;DHT22;61549;37.044;22.128;2023-04-03T08:03:03;18.20;59.50
73322;DHT22;61549;37.044;22.128;2023-04-03T08:05:29;18.30;59.90
73322;DHT22;61549;37.044;22.128;2023-04-03T08:07:55;18.30;62.50
73322;DHT22;61549;37.044;22.128;2023-04-03T08:10:21;18.30;63.20
73322;DHT22;61549;37.044;22.128;2023-04-03T08:12:48;18.30;63.80
73322;DHT22;61549;37.044;22.128;2023-04-03T08:15:14;18.20;64.70
73322;DHT22;61549;37.044;22.128;2023-04-03T08:17:40;18.00;63.30
73322;DHT22;61549;37.044;22.128;2023-04-03T08:20:07;17.80;65.40
73322;DHT22;61549;37.044;22.128;2023-04-03T08:22:33;17.60;69.40
73322;DHT22;61549;37.044;22.128;2023-04-03T08:25:00;17.30;73.60
73322;DHT22;61549;37.044;22.128;2023-04-03T08:27:27;17.10;76.50
73322;DHT22;61549;37.044;22.128;2023-04-03T08:29:55;16.90;76.30
73322;DHT22;61549;37.044;22.128;2023-04-03T08:32:21;16.90;77.70
73322;DHT22;61549;37.044;22.128;2023-04-03T08:34:47;16.80;79.40
73322;DHT22;61549;37.044;22.128;2023-04-03T08:37:13;16.80;79.90
73322;DHT22;61549;37.044;22.128;2023-04-03T08:39:39;16.80;79.30
73322;DHT22;61549;37.044;22.128;2023-04-03T08:42:38;16.80;78.20
73322;DHT22;61549;37.044;22.128;2023-04-03T08:48:07;17.00;78.60
73322;DHT22;61549;37.044;22.128;2023-04-03T08:50:40;17.20;79.60
73322;DHT22;61549;37.044;22.128;2023-04-03T08:53:15;17.40;78.70
73322;DHT22;61549;37.044;22.128;2023-04-03T08:55:49;17.50;77.80
73322;DHT22;61549;37.044;22.128;2023-04-03T08:58:26;17.60;76.90
73322;DHT22;61549;37.044;22.128;2023-04-03T09:00:55;17.80;76.40
73322;DHT22;61549;37.044;22.128;2023-04-03T09:03:23;17.90;75.80
73322;DHT22;61549;37.044;22.128;2023-04-03T09:06:11;18.00;75.60
73322;DHT22;61549;37.044;22.128;2023-04-03T09:11:27;18.00;72.20
73322;DHT22;61549;37.044;22.128;2023-04-03T09:14:19;17.70;70.10
73322;DHT22;61549;37.044;22.128;2023-04-03T09:16:49;17.70;70.60
73322;DHT22;61549;37.044;22.128;2023-04-03T09:24:41;17.20;67.20
73322;DHT22;61549;37.044;22.128;2023-04-03T09:27:10;17.30;66.20
73322;DHT22;61549;37.044;22.128;2023-04-03T09:29:41;17.30;66.30
73322;DHT22;61549;37.044;22.128;2023-04-03T09:32:28;17.20;65.10
73322;DHT22;61549;37.044;22.128;2023-04-03T09:34:57;17.30;63.60
73322;DHT22;61549;37.044;22.128;2023-04-03T09:37:41;17.30;62.80
73322;DHT22;61549;37.044;22.128;2023-04-03T09:42:54;17.40;63.90
73322;DHT22;61549;37.044;22.128;2023-04-03T09:45:29;17.30;62.20
73322;DHT22;61549;37.044;22.128;2023-04-03T09:48:25;17.40;61.90
73322;DHT22;61549;37.044;22.128;2023-04-03T09:50:54;17.60;62.70
73322;DHT22;61549;37.044;22.128;2023-04-03T09:58:49;17.70;60.50
73322;DHT22;61549;37.044;22.128;2023-04-03T10:01:36;17.70;60.70
73322;DHT22;61549;37.044;22.128;2023-04-03T10:06:33;17.60;64.20
73322;DHT22;61549;37.044;22.128;2023-04-03T10:09:22;17.40;64.40
73322;DHT22;61549;37.044;22.128;2023-04-03T10:12:06;17.40;65.40
73322;DHT22;61549;37.044;22.128;2023-04-03T10:14:34;17.30;65.90
73322;DHT22;61549;37.044;22.128;2023-04-03T10:17:16;17.40;66.80
73322;DHT22;61549;37.044;22.128;2023-04-03T10:23:21;17.70;66.60
73322;DHT22;61549;37.044;22.128;2023-04-03T10:26:23;17.80;66.00
73322;DHT22;61549;37.044;22.128;2023-04-03T10:31:42;17.80;64.40
73322;DHT22;61549;37.044;22.128;2023-04-03T10:34:20;17.70;65.00
73322;DHT22;61549;37.044;22.128;2023-04-03T10:48:03;17.80;66.20
73322;DHT22;61549;37.044;22.128;2023-04-03T10:53:24;18.00;68.00
73322;DHT22;61549;37.044;22.128;2023-04-03T10:56:21;18.10;67.90
73322;DHT22;61549;37.044;22.128;2023-04-03T11:01:40;18.50;66.20
73322;DHT22;61549;37.044;22.128;2023-04-03T11:04:07;18.60;66.20
73322;DHT22;61549;37.044;22.128;2023-04-03T11:07:08;18.60;66.30
73322;DHT22;61549;37.044;22.128;2023-04-03T11:09:40;18.60;66.10
73322;DHT22;61549;37.044;22.128;2023-04-03T11:12:48;18.40;66.90
73322;DHT22;61549;37.044;22.128;2023-04-03T11:15:12;18.40;67.30
73322;DHT22;61549;37.044;22.128;2023-04-03T11:17:48;18.40;68.20
73322;DHT22;61549;37.044;22.128;2023-04-03T11:20:29;18.50;68.10
73322;DHT22;61549;37.044;22.128;2023-04-03T11:23:16;18.30;69.00
73322;DHT22;61549;37.044;22.128;2023-04-03T11:25:49;18.20;69.70
73322;DHT22;61549;37.044;22.128;2023-04-03T11:28:15;18.10;71.60
73322;DHT22;61549;37.044;22.128;2023-04-03T11:31:11;18.20;72.70
73322;DHT22;61549;37.044;22.128;2023-04-03T11:36:25;18.40;70.40
73322;DHT22;61549;37.044;22.128;2023-04-03T11:39:00;18.70;69.50
73322;DHT22;61549;37.044;22.128;2023-04-03T11:41:30;18.70;68.50
73322;DHT22;61549;37.044;22.128;2023-04-03T11:47:03;19.20;67.10
73322;DHT22;61549;37.044;22.128;2023-04-03T11:50:01;19.40;67.80
73322;DHT22;61549;37.044;22.128;2023-04-03T12:16:32;19.50;65.70
73322;DHT22;61549;37.044;22.128;2023-04-03T12:27:05;18.60;66.00
73322;DHT22;61549;37.044;22.128;2023-04-03T12:29:43;18.50;67.20
73322;DHT22;61549;37.044;22.128;2023-04-03T12:32:34;18.60;67.90
73322;DHT22;61549;37.044;22.128;2023-04-03T12:46:17;19.00;63.70
73322;DHT22;61549;37.044;22.128;2023-04-03T12:48:56;19.20;62.90
73322;DHT22;61549;37.044;22.128;2023-04-03T12:51:40;19.60;60.90
73322;DHT22;61549;37.044;22.128;2023-04-03T12:54:18;19.80;60.20
73322;DHT22;61549;37.044;22.128;2023-04-03T12:56:45;19.90;58.80
73322;DHT22;61549;37.044;22.128;2023-04-03T13:01:41;19.80;58.50
73322;DHT22;61549;37.044;22.128;2023-04-03T13:04:10;19.90;57.50
73322;DHT22;61549;37.044;22.128;2023-04-03T13:06:40;19.90;58.40
73322;DHT22;61549;37.044;22.128;2023-04-03T13:11:49;19.80;57.90
73322;DHT22;61549;37.044;22.128;2023-04-03T13:14:21;19.70;59.30
73322;DHT22;61549;37.044;22.128;2023-04-03T13:17:16;19.50;60.80
73322;DHT22;61549;37.044;22.128;2023-04-03T13:19:44;19.10;61.90
73322;DHT22;61549;37.044;22.128;2023-04-03T13:22:33;19.00;62.40
73322;DHT22;61549;37.044;22.128;2023-04-03T13:25:07;19.00;61.40
73322;DHT22;61549;37.044;22.128;2023-04-03T13:27:34;18.80;60.00
73322;DHT22;61549;37.044;22.128;2023-04-03T13:30:01;18.80;60.70
73322;DHT22;61549;37.044;22.128;2023-04-03T13:32:30;18.70;60.60
73322;DHT22;61549;37.044;22.128;2023-04-03T13:35:02;18.70;59.80
73322;DHT22;61549;37.044;22.128;2023-04-03T13:37:56;18.50;60.40
73322;DHT22;61549;37.044;22.128;2023-04-03T13:40:23;18.60;61.80
73322;DHT22;61549;37.044;22.128;2023-04-03T13:43:00;18.50;64.00
73322;DHT22;61549;37.044;22.128;2023-04-03T13:45:31;18.60;64.90
73322;DHT22;61549;37.044;22.128;2023-04-03T13:48:16;18.60;62.10
73322;DHT22;61549;37.044;22.128;2023-04-03T13:51:05;18.50;60.20
73322;DHT22;61549;37.044;22.128;2023-04-03T13:53:34;18.40;57.10
73322;DHT22;61549;37.044;22.128;2023-04-03T13:56:13;18.40;58.90
73322;DHT22;61549;37.044;22.128;2023-04-03T13:58:53;18.60;58.30
73322;DHT22;61549;37.044;22.128;2023-04-03T14:01:20;18.70;60.50
73322;DHT22;61549;37.044;22.128;2023-04-03T14:06:18;18.80;62.90
73322;DHT22;61549;37.044;22.128;2023-04-03T14:08:45;18.90;64.30
73322;DHT22;61549;37.044;22.128;2023-04-03T14:11:17;19.00;63.20
73322;DHT22;61549;37.044;22.128;2023-04-03T14:13:45;19.00;63.30
73322;DHT22;61549;37.044;22.128;2023-04-03T14:16:20;19.10;62.50
73322;DHT22;61549;37.044;22.128;2023-04-03T14:18:47;19.40;62.90
73322;DHT22;61549;37.044;22.128;2023-04-03T14:21:15;19.30;62.00
73322;DHT22;61549;37.044;22.128;2023-04-03T14:23:42;19.30;62.20
73322;DHT22;61549;37.044;22.128;2023-04-03T14:26:17;19.30;61.80
73322;DHT22;61549;37.044;22.128;2023-04-03T14:28:45;19.30;62.00
73322;DHT22;61549;37.044;22.128;2023-04-03T14:31:12;19.20;59.80
73322;DHT22;61549;37.044;22.128;2023-04-03T14:33:48;19.20;60.30
73322;DHT22;61549;37.044;22.128;2023-04-03T14:36:22;19.00;60.00
73322;DHT22;61549;37.044;22.128;2023-04-03T14:38:49;18.90;61.30
73322;DHT22;61549;37.044;22.128;2023-04-03T14:41:18;18.90;61.30
73322;DHT22;61549;37.044;22.128;2023-04-03T14:43:46;19.00;61.70
73322;DHT22;61549;37.044;22.128;2023-04-03T14:46:16;18.90;61.20
73322;DHT22;61549;37.044;22.128;2023-04-03T14:48:42;18.80;59.60
73322;DHT22;61549;37.044;22.128;2023-04-03T14:51:13;18.70;59.70
73322;DHT22;61549;37.044;22.128;2023-04-03T14:53:40;18.80;60.20
73322;DHT22;61549;37.044;22.128;2023-04-03T14:56:31;18.70;60.00
73322;DHT22;61549;37.044;22.128;2023-04-03T14:58:59;18.60;60.70
73322;DHT22;61549;37.044;22.128;2023-04-03T15:01:27;18.50;61.80
73322;DHT22;61549;37.044;22.128;2023-04-03T15:03:53;18.40;63.00
73322;DHT22;61549;37.044;22.128;2023-04-03T15:06:19;18.30;62.80
73322;DHT22;61549;37.044;22.128;2023-04-03T15:08:47;18.30;63.20
73322;DHT22;61549;37.044;22.128;2023-04-03T15:11:13;18.30;62.10
73322;DHT22;61549;37.044;22.128;2023-04-03T15:13:40;18.20;61.70
73322;DHT22;61549;37.044;22.128;2023-04-03T15:16:19;18.20;62.10
73322;DHT22;61549;37.044;22.128;2023-04-03T15:18:46;18.30;61.70
73322;DHT22;61549;37.044;22.128;2023-04-03T15:21:13;18.20;61.90
73322;DHT22;61549;37.044;22.128;2023-04-03T15:23:39;18.00;61.20
73322;DHT22;61549;37.044;22.128;2023-04-03T15:26:07;18.10;61.40
73322;DHT22;61549;37.044;22.128;2023-04-03T15:28:39;18.20;60.90
73322;DHT22;61549;37.044;22.128;2023-04-03T15:31:06;18.20;61.40
73322;DHT22;61549;37.044;22.128;2023-04-03T15:33:34;18.20;61.20
73322;DHT22;61549;37.044;22.128;2023-04-03T15:36:00;18.10;59.80
73322;DHT22;61549;37.044;22.128;2023-04-03T15:38:26;18.00;59.60
73322;DHT22;61549;37.044;22.128;2023-04-03T15:40:54;17.90;59.90
73322;DHT22;61549;37.044;22.128;2023-04-03T15:43:21;17.90;61.30
73322;DHT22;61549;37.044;22.128;2023-04-03T15:45:47;18.00;62.10
73322;DHT22;61549;37.044;22.128;2023-04-03T15:48:13;18.10;62.00
73322;DHT22;61549;37.044;22.128;2023-04-03T15:50:40;18.00;62.00
73322;DHT22;61549;37.044;22.128;2023-04-03T15:53:06;18.10;61.90
73322;DHT22;61549;37.044;22.128;2023-04-03T15:55:34;18.20;60.40
73322;DHT22;61549;37.044;22.128;2023-04-03T15:58:01;18.10;59.40
73322;DHT22;61549;37.044;22.128;2023-04-03T16:00:27;18.20;59.60
73322;DHT22;61549;37.044;22.128;2023-04-03T16:02:57;18.10;59.70
73322;DHT22;61549;37.044;22.128;2023-04-03T16:05:24;18.10;60.10
73322;DHT22;61549;37.044;22.128;2023-04-03T16:07:51;18.10;60.60
73322;DHT22;61549;37.044;22.128;2023-04-03T16:10:24;18.10;60.10
73322;DHT22;61549;37.044;22.128;2023-04-03T16:12:50;18.20;60.40
73322;DHT22;61549;37.044;22.128;2023-04-03T16:15:16;18.40;60.20
73322;DHT22;61549;37.044;22.128;2023-04-03T16:17:42;18.50;59.70
73322;DHT22;61549;37.044;22.128;2023-04-03T16:20:10;18.60;59.30
73322;DHT22;61549;37.044;22.128;2023-04-03T16:22:37;18.50;59.50
73322;DHT22;61549;37.044;22.128;2023-04-03T16:25:04;18.60;59.30
73322;DHT22;61549;37.044;22.128;2023-04-03T16:27:31;18.70;59.10
73322;DHT22;61549;37.044;22.128;2023-04-03T16:29:57;18.60;59.00
73322;DHT22;61549;37.044;22.128;2023-04-03T16:32:26;18.50;59.20
73322;DHT22;61549;37.044;22.128;2023-04-03T16:35:01;18.50;59.60
73322;DHT22;61549;37.044;22.128;2023-04-03T16:37:27;18.50;59.60
73322;DHT22;61549;37.044;22.128;2023-04-03T16:39:53;18.30;59.60
73322;DHT22;61549;37.044;22.128;2023-04-03T16:42:19;18.30;60.30
73322;DHT22;61549;37.044;22.128;2023-04-03T16:44:44;18.30;60.00
73322;DHT22;61549;37.044;22.128;2023-04-03T16:47:10;18.20;59.90
73322;DHT22;61549;37.044;22.128;2023-04-03T16:49:40;18.30;60.00
73322;DHT22;61549;37.044;22.128;2023-04-03T16:52:06;18.20;60.30
73322;DHT22;61549;37.044;22.128;2023-04-03T16:54:32;18.30;60.30
73322;DHT22;61549;37.044;22.128;2023-04-03T16:56:58;18.30;60.30
73322;DHT22;61549;37.044;22.128;2023-04-03T16:59:24;18.20;59.90
73322;DHT22;61549;37.044;22.128;2023-04-03T17:01:50;18.40;60.00
73322;DHT22;61549;37.044;22.128;2023-04-03T17:04:16;18.40;59.60
73322;DHT22;61549;37.044;22.128;2023-04-03T17:06:42;18.40;59.60
73322;DHT22;61549;37.044;22.128;2023-04-03T17:09:08;18.40;59.60
73322;DHT22;61549;37.044;22.128;2023-04-03T17:11:35;18.50;59.40
73322;DHT22;61549;37.044;22.128;2023-04-03T17:14:01;18.60;58.90